Berwyn, Nebraska
Current Conditions -  °F | °C
As of 11:53 AM on Thursday 18 Dec 2014 (Local Time) from KBBW Reporting Station
Overcast Overcast  
Wind Chill: 19°   Ceiling: 700
Heat Index: 27°   Visibility: 10mi
Dew Point: 25°   Wind: 8mph
Humidity: 92%   Direction: 220°SW
Pressure: 30.11"   Gusts: NA
Location:  41.35°N, 99.5°W
Report Text: KBBW 181753Z AUTO 22007KT 10SM OVC007 M03/M04 A3011 RMK AO2 SLP228 6//// I6000 T10281039 11028 21044 58001
Loading
Personal Weather Stations






























Interactive Weather Map New forecast layout! Learn more

10-Day Weather Forecast

Advertisements
Track Severe Weather on mobile